sensor_id;sensor_type;location;lat;lon;timestamp;P1;durP1;ratioP1;P2;durP2;ratioP2
23406;SDS011;11876;53.438;18.942;2023-03-16T00:02:11;15.90;;;8.17;;
23406;SDS011;11876;53.438;18.942;2023-03-16T00:05:13;20.23;;;10.15;;
23406;SDS011;11876;53.438;18.942;2023-03-16T00:08:16;19.52;;;8.88;;
23406;SDS011;11876;53.438;18.942;2023-03-16T00:11:19;16.27;;;8.57;;
23406;SDS011;11876;53.438;18.942;2023-03-16T00:14:22;14.75;;;7.95;;
23406;SDS011;11876;53.438;18.942;2023-03-16T00:17:24;16.60;;;8.95;;
23406;SDS011;11876;53.438;18.942;2023-03-16T00:20:27;12.70;;;6.85;;
23406;SDS011;11876;53.438;18.942;2023-03-16T00:23:29;18.80;;;10.48;;
23406;SDS011;11876;53.438;18.942;2023-03-16T00:26:36;17.80;;;9.35;;
23406;SDS011;11876;53.438;18.942;2023-03-16T00:29:42;19.15;;;10.55;;
23406;SDS011;11876;53.438;18.942;2023-03-16T00:32:49;17.17;;;9.35;;
23406;SDS011;11876;53.438;18.942;2023-03-16T00:35:54;14.27;;;9.02;;
23406;SDS011;11876;53.438;18.942;2023-03-16T00:39:04;13.52;;;8.75;;
23406;SDS011;11876;53.438;18.942;2023-03-16T00:42:08;15.10;;;8.63;;
23406;SDS011;11876;53.438;18.942;2023-03-16T00:45:15;13.57;;;8.70;;
23406;SDS011;11876;53.438;18.942;2023-03-16T00:48:17;12.30;;;6.88;;
23406;SDS011;11876;53.438;18.942;2023-03-16T00:51:21;17.08;;;9.77;;
23406;SDS011;11876;53.438;18.942;2023-03-16T00:54:24;16.92;;;10.00;;
23406;SDS011;11876;53.438;18.942;2023-03-16T00:57:27;11.90;;;7.17;;
23406;SDS011;11876;53.438;18.942;2023-03-16T01:00:31;11.10;;;7.47;;
23406;SDS011;11876;53.438;18.942;2023-03-16T01:03:36;22.45;;;10.88;;
23406;SDS011;11876;53.438;18.942;2023-03-16T01:06:40;15.50;;;9.57;;
23406;SDS011;11876;53.438;18.942;2023-03-16T01:09:43;16.95;;;9.10;;
23406;SDS011;11876;53.438;18.942;2023-03-16T01:12:46;16.37;;;8.83;;
23406;SDS011;11876;53.438;18.942;2023-03-16T01:15:49;15.13;;;8.60;;
23406;SDS011;11876;53.438;18.942;2023-03-16T01:18:52;11.50;;;6.85;;
23406;SDS011;11876;53.438;18.942;2023-03-16T01:21:56;18.67;;;8.13;;
23406;SDS011;11876;53.438;18.942;2023-03-16T01:24:58;12.43;;;7.80;;
23406;SDS011;11876;53.438;18.942;2023-03-16T01:28:01;12.77;;;7.75;;
23406;SDS011;11876;53.438;18.942;2023-03-16T01:31:05;9.30;;;6.32;;
23406;SDS011;11876;53.438;18.942;2023-03-16T01:34:10;15.45;;;9.10;;
23406;SDS011;11876;53.438;18.942;2023-03-16T01:37:17;13.73;;;8.60;;
23406;SDS011;11876;53.438;18.942;2023-03-16T01:40:32;14.82;;;8.73;;
23406;SDS011;11876;53.438;18.942;2023-03-16T01:43:35;15.07;;;8.55;;
23406;SDS011;11876;53.438;18.942;2023-03-16T01:46:39;15.30;;;8.85;;
23406;SDS011;11876;53.438;18.942;2023-03-16T01:49:43;16.25;;;8.40;;
23406;SDS011;11876;53.438;18.942;2023-03-16T01:52:48;18.30;;;10.05;;
23406;SDS011;11876;53.438;18.942;2023-03-16T01:55:52;13.05;;;8.93;;
23406;SDS011;11876;53.438;18.942;2023-03-16T01:58:56;8.87;;;6.97;;
23406;SDS011;11876;53.438;18.942;2023-03-16T02:02:00;16.58;;;8.80;;
23406;SDS011;11876;53.438;18.942;2023-03-16T02:05:13;13.93;;;8.48;;
23406;SDS011;11876;53.438;18.942;2023-03-16T02:08:18;15.98;;;8.93;;
23406;SDS011;11876;53.438;18.942;2023-03-16T02:11:23;17.23;;;9.07;;
23406;SDS011;11876;53.438;18.942;2023-03-16T02:14:33;16.10;;;9.23;;
23406;SDS011;11876;53.438;18.942;2023-03-16T02:17:36;17.13;;;9.80;;
23406;SDS011;11876;53.438;18.942;2023-03-16T02:24:18;13.88;;;8.07;;
23406;SDS011;11876;53.438;18.942;2023-03-16T02:27:45;13.05;;;8.55;;
23406;SDS011;11876;53.438;18.942;2023-03-16T02:31:04;21.83;;;11.82;;
23406;SDS011;11876;53.438;18.942;2023-03-16T02:34:08;19.67;;;11.55;;
23406;SDS011;11876;53.438;18.942;2023-03-16T02:37:10;19.38;;;9.98;;
23406;SDS011;11876;53.438;18.942;2023-03-16T02:40:24;14.15;;;8.95;;
23406;SDS011;11876;53.438;18.942;2023-03-16T02:43:30;20.50;;;10.88;;
23406;SDS011;11876;53.438;18.942;2023-03-16T02:46:44;22.27;;;10.50;;
23406;SDS011;11876;53.438;18.942;2023-03-16T02:49:48;18.00;;;10.15;;
23406;SDS011;11876;53.438;18.942;2023-03-16T02:52:51;17.00;;;10.27;;
23406;SDS011;11876;53.438;18.942;2023-03-16T02:55:53;16.20;;;10.18;;
23406;SDS011;11876;53.438;18.942;2023-03-16T02:58:56;15.50;;;8.63;;
23406;SDS011;11876;53.438;18.942;2023-03-16T03:01:59;17.73;;;10.70;;
23406;SDS011;11876;53.438;18.942;2023-03-16T03:05:02;19.27;;;9.77;;
23406;SDS011;11876;53.438;18.942;2023-03-16T03:08:04;19.05;;;9.48;;
23406;SDS011;11876;53.438;18.942;2023-03-16T03:11:07;22.83;;;12.02;;
23406;SDS011;11876;53.438;18.942;2023-03-16T03:14:11;18.47;;;8.70;;
23406;SDS011;11876;53.438;18.942;2023-03-16T03:17:21;19.65;;;10.82;;
23406;SDS011;11876;53.438;18.942;2023-03-16T03:20:31;20.13;;;10.50;;
23406;SDS011;11876;53.438;18.942;2023-03-16T03:23:33;15.27;;;8.10;;
23406;SDS011;11876;53.438;18.942;2023-03-16T03:26:36;17.90;;;10.63;;
23406;SDS011;11876;53.438;18.942;2023-03-16T03:29:42;13.40;;;9.13;;
23406;SDS011;11876;53.438;18.942;2023-03-16T03:32:45;17.83;;;10.80;;
23406;SDS011;11876;53.438;18.942;2023-03-16T03:35:54;15.50;;;10.73;;
23406;SDS011;11876;53.438;18.942;2023-03-16T03:39:02;16.60;;;10.23;;
23406;SDS011;11876;53.438;18.942;2023-03-16T03:42:09;15.65;;;10.32;;
23406;SDS011;11876;53.438;18.942;2023-03-16T03:45:12;15.00;;;9.52;;
23406;SDS011;11876;53.438;18.942;2023-03-16T03:48:16;17.92;;;9.77;;
23406;SDS011;11876;53.438;18.942;2023-03-16T03:51:18;16.45;;;9.73;;
23406;SDS011;11876;53.438;18.942;2023-03-16T03:54:36;19.70;;;10.98;;
23406;SDS011;11876;53.438;18.942;2023-03-16T03:57:42;18.17;;;10.23;;
23406;SDS011;11876;53.438;18.942;2023-03-16T04:00:45;14.07;;;8.27;;
23406;SDS011;11876;53.438;18.942;2023-03-16T04:03:48;17.15;;;10.10;;
23406;SDS011;11876;53.438;18.942;2023-03-16T04:06:51;16.13;;;10.38;;
23406;SDS011;11876;53.438;18.942;2023-03-16T04:09:56;21.73;;;9.82;;
23406;SDS011;11876;53.438;18.942;2023-03-16T04:13:11;18.40;;;10.82;;
23406;SDS011;11876;53.438;18.942;2023-03-16T04:16:14;22.85;;;11.77;;
23406;SDS011;11876;53.438;18.942;2023-03-16T04:19:21;21.67;;;10.77;;
23406;SDS011;11876;53.438;18.942;2023-03-16T04:22:26;18.90;;;10.68;;
23406;SDS011;11876;53.438;18.942;2023-03-16T04:25:31;24.60;;;11.77;;
23406;SDS011;11876;53.438;18.942;2023-03-16T04:28:33;22.90;;;12.05;;
23406;SDS011;11876;53.438;18.942;2023-03-16T04:31:36;22.52;;;12.40;;
23406;SDS011;11876;53.438;18.942;2023-03-16T04:34:39;15.88;;;9.70;;
23406;SDS011;11876;53.438;18.942;2023-03-16T04:37:46;24.45;;;14.80;;
23406;SDS011;11876;53.438;18.942;2023-03-16T04:40:49;25.03;;;13.43;;
23406;SDS011;11876;53.438;18.942;2023-03-16T04:43:57;59.65;;;28.35;;
23406;SDS011;11876;53.438;18.942;2023-03-16T04:47:00;53.07;;;23.97;;
23406;SDS011;11876;53.438;18.942;2023-03-16T04:50:09;41.33;;;19.20;;
23406;SDS011;11876;53.438;18.942;2023-03-16T04:53:15;29.70;;;14.85;;
23406;SDS011;11876;53.438;18.942;2023-03-16T04:56:20;23.63;;;13.80;;
23406;SDS011;11876;53.438;18.942;2023-03-16T04:59:29;32.67;;;19.48;;
23406;SDS011;11876;53.438;18.942;2023-03-16T05:02:58;41.53;;;25.27;;
23406;SDS011;11876;53.438;18.942;2023-03-16T05:06:00;27.23;;;15.63;;
23406;SDS011;11876;53.438;18.942;2023-03-16T05:09:06;27.67;;;13.88;;
23406;SDS011;11876;53.438;18.942;2023-03-16T05:12:11;24.38;;;13.98;;
23406;SDS011;11876;53.438;18.942;2023-03-16T05:15:16;25.88;;;14.23;;
23406;SDS011;11876;53.438;18.942;2023-03-16T05:18:27;24.70;;;14.40;;
23406;SDS011;11876;53.438;18.942;2023-03-16T05:21:30;32.28;;;17.35;;
23406;SDS011;11876;53.438;18.942;2023-03-16T05:24:36;21.45;;;13.55;;
23406;SDS011;11876;53.438;18.942;2023-03-16T05:27:40;20.50;;;11.70;;
23406;SDS011;11876;53.438;18.942;2023-03-16T05:30:46;24.80;;;14.02;;
23406;SDS011;11876;53.438;18.942;2023-03-16T05:33:55;28.50;;;15.65;;
23406;SDS011;11876;53.438;18.942;2023-03-16T05:36:58;15.48;;;11.35;;
23406;SDS011;11876;53.438;18.942;2023-03-16T05:40:01;26.23;;;15.83;;
23406;SDS011;11876;53.438;18.942;2023-03-16T05:43:12;45.63;;;25.77;;
23406;SDS011;11876;53.438;18.942;2023-03-16T05:46:20;36.80;;;18.50;;
23406;SDS011;11876;53.438;18.942;2023-03-16T05:49:24;56.17;;;25.75;;
23406;SDS011;11876;53.438;18.942;2023-03-16T05:52:27;54.50;;;23.60;;
23406;SDS011;11876;53.438;18.942;2023-03-16T05:55:32;64.15;;;28.65;;
23406;SDS011;11876;53.438;18.942;2023-03-16T05:58:36;75.65;;;34.75;;
23406;SDS011;11876;53.438;18.942;2023-03-16T06:01:42;57.70;;;24.70;;
23406;SDS011;11876;53.438;18.942;2023-03-16T06:04:45;72.55;;;30.50;;
23406;SDS011;11876;53.438;18.942;2023-03-16T06:07:47;55.17;;;23.05;;
23406;SDS011;11876;53.438;18.942;2023-03-16T06:10:51;24.65;;;14.15;;
23406;SDS011;11876;53.438;18.942;2023-03-16T06:13:54;33.85;;;18.25;;
23406;SDS011;11876;53.438;18.942;2023-03-16T06:16:59;36.90;;;20.15;;
23406;SDS011;11876;53.438;18.942;2023-03-16T06:20:03;43.65;;;23.13;;
23406;SDS011;11876;53.438;18.942;2023-03-16T06:23:14;29.50;;;16.02;;
23406;SDS011;11876;53.438;18.942;2023-03-16T06:26:17;35.28;;;17.17;;
23406;SDS011;11876;53.438;18.942;2023-03-16T06:29:21;31.42;;;20.25;;
23406;SDS011;11876;53.438;18.942;2023-03-16T06:32:24;22.17;;;13.27;;
23406;SDS011;11876;53.438;18.942;2023-03-16T06:35:28;24.10;;;14.82;;
23406;SDS011;11876;53.438;18.942;2023-03-16T06:38:45;25.65;;;14.45;;
23406;SDS011;11876;53.438;18.942;2023-03-16T06:41:59;25.98;;;12.95;;
23406;SDS011;11876;53.438;18.942;2023-03-16T06:45:01;28.98;;;15.80;;
23406;SDS011;11876;53.438;18.942;2023-03-16T06:48:06;23.85;;;14.25;;
23406;SDS011;11876;53.438;18.942;2023-03-16T06:51:12;27.75;;;14.50;;
23406;SDS011;11876;53.438;18.942;2023-03-16T06:54:18;19.80;;;11.70;;
23406;SDS011;11876;53.438;18.942;2023-03-16T06:57:22;22.92;;;13.35;;
23406;SDS011;11876;53.438;18.942;2023-03-16T07:00:24;21.17;;;11.55;;
23406;SDS011;11876;53.438;18.942;2023-03-16T07:03:28;13.77;;;8.02;;
23406;SDS011;11876;53.438;18.942;2023-03-16T07:06:36;28.40;;;14.32;;
23406;SDS011;11876;53.438;18.942;2023-03-16T07:09:39;22.80;;;11.90;;
23406;SDS011;11876;53.438;18.942;2023-03-16T07:12:43;21.00;;;13.07;;
23406;SDS011;11876;53.438;18.942;2023-03-16T07:15:48;14.97;;;9.83;;
23406;SDS011;11876;53.438;18.942;2023-03-16T07:18:54;18.92;;;10.55;;
23406;SDS011;11876;53.438;18.942;2023-03-16T07:21:56;23.52;;;11.15;;
23406;SDS011;11876;53.438;18.942;2023-03-16T07:25:01;23.70;;;11.63;;
23406;SDS011;11876;53.438;18.942;2023-03-16T07:28:04;16.80;;;8.85;;
23406;SDS011;11876;53.438;18.942;2023-03-16T07:31:12;17.55;;;10.35;;
23406;SDS011;11876;53.438;18.942;2023-03-16T07:34:15;15.63;;;9.82;;
23406;SDS011;11876;53.438;18.942;2023-03-16T07:37:23;18.08;;;8.85;;
23406;SDS011;11876;53.438;18.942;2023-03-16T07:40:30;18.38;;;10.70;;
23406;SDS011;11876;53.438;18.942;2023-03-16T07:43:42;16.98;;;9.52;;
23406;SDS011;11876;53.438;18.942;2023-03-16T07:46:47;20.60;;;11.38;;
23406;SDS011;11876;53.438;18.942;2023-03-16T07:49:50;17.67;;;10.07;;
23406;SDS011;11876;53.438;18.942;2023-03-16T07:52:53;19.88;;;12.13;;
23406;SDS011;11876;53.438;18.942;2023-03-16T07:55:56;15.20;;;10.47;;
23406;SDS011;11876;53.438;18.942;2023-03-16T07:58:58;18.52;;;10.75;;
23406;SDS011;11876;53.438;18.942;2023-03-16T08:02:04;27.88;;;14.68;;
23406;SDS011;11876;53.438;18.942;2023-03-16T08:05:07;20.92;;;11.25;;
23406;SDS011;11876;53.438;18.942;2023-03-16T08:08:14;18.05;;;11.00;;
23406;SDS011;11876;53.438;18.942;2023-03-16T08:11:17;20.53;;;10.37;;
23406;SDS011;11876;53.438;18.942;2023-03-16T08:14:30;22.42;;;10.63;;
23406;SDS011;11876;53.438;18.942;2023-03-16T08:17:43;11.88;;;7.38;;
23406;SDS011;11876;53.438;18.942;2023-03-16T08:20:52;15.90;;;9.52;;
23406;SDS011;11876;53.438;18.942;2023-03-16T08:23:55;19.42;;;8.77;;
23406;SDS011;11876;53.438;18.942;2023-03-16T08:26:58;16.85;;;8.85;;
23406;SDS011;11876;53.438;18.942;2023-03-16T08:30:06;14.38;;;8.52;;
23406;SDS011;11876;53.438;18.942;2023-03-16T08:33:15;18.20;;;8.20;;
23406;SDS011;11876;53.438;18.942;2023-03-16T08:36:18;17.00;;;8.88;;
23406;SDS011;11876;53.438;18.942;2023-03-16T08:39:24;13.30;;;7.88;;
23406;SDS011;11876;53.438;18.942;2023-03-16T08:42:26;13.98;;;8.05;;
23406;SDS011;11876;53.438;18.942;2023-03-16T08:45:34;16.70;;;8.27;;
23406;SDS011;11876;53.438;18.942;2023-03-16T08:48:36;16.85;;;9.23;;
23406;SDS011;11876;53.438;18.942;2023-03-16T08:51:38;13.75;;;7.93;;
23406;SDS011;11876;53.438;18.942;2023-03-16T08:54:41;12.68;;;9.48;;
23406;SDS011;11876;53.438;18.942;2023-03-16T08:58:02;11.88;;;8.05;;
23406;SDS011;11876;53.438;18.942;2023-03-16T09:01:05;12.13;;;8.23;;
23406;SDS011;11876;53.438;18.942;2023-03-16T09:04:09;16.70;;;8.88;;
23406;SDS011;11876;53.438;18.942;2023-03-16T09:10:16;20.75;;;9.77;;
23406;SDS011;11876;53.438;18.942;2023-03-16T09:13:19;19.98;;;9.32;;
23406;SDS011;11876;53.438;18.942;2023-03-16T09:16:22;11.40;;;6.97;;
23406;SDS011;11876;53.438;18.942;2023-03-16T09:19:26;51.28;;;29.23;;
23406;SDS011;11876;53.438;18.942;2023-03-16T09:22:41;17.98;;;10.27;;
23406;SDS011;11876;53.438;18.942;2023-03-16T09:25:44;15.73;;;8.93;;
23406;SDS011;11876;53.438;18.942;2023-03-16T09:28:47;16.45;;;7.88;;
23406;SDS011;11876;53.438;18.942;2023-03-16T09:31:50;13.77;;;8.27;;
23406;SDS011;11876;53.438;18.942;2023-03-16T09:34:53;13.25;;;7.15;;
23406;SDS011;11876;53.438;18.942;2023-03-16T09:37:55;9.70;;;5.80;;
23406;SDS011;11876;53.438;18.942;2023-03-16T09:47:41;12.18;;;7.47;;
23406;SDS011;11876;53.438;18.942;2023-03-16T09:50:45;13.25;;;5.80;;
23406;SDS011;11876;53.438;18.942;2023-03-16T09:53:51;14.20;;;6.95;;
23406;SDS011;11876;53.438;18.942;2023-03-16T09:56:57;14.68;;;7.60;;
23406;SDS011;11876;53.438;18.942;2023-03-16T10:00:19;10.73;;;6.47;;
23406;SDS011;11876;53.438;18.942;2023-03-16T10:03:28;13.95;;;6.90;;
23406;SDS011;11876;53.438;18.942;2023-03-16T10:06:32;13.65;;;7.18;;
23406;SDS011;11876;53.438;18.942;2023-03-16T10:09:35;13.00;;;7.38;;
23406;SDS011;11876;53.438;18.942;2023-03-16T10:12:43;11.30;;;6.78;;
23406;SDS011;11876;53.438;18.942;2023-03-16T10:15:49;14.77;;;7.28;;
23406;SDS011;11876;53.438;18.942;2023-03-16T10:22:01;14.00;;;7.78;;
23406;SDS011;11876;53.438;18.942;2023-03-16T10:28:18;12.85;;;7.05;;
23406;SDS011;11876;53.438;18.942;2023-03-16T10:31:22;11.15;;;6.80;;
23406;SDS011;11876;53.438;18.942;2023-03-16T10:34:25;9.82;;;6.38;;
23406;SDS011;11876;53.438;18.942;2023-03-16T10:37:28;15.77;;;9.40;;
23406;SDS011;11876;53.438;18.942;2023-03-16T10:40:31;15.60;;;8.98;;
23406;SDS011;11876;53.438;18.942;2023-03-16T10:43:39;10.98;;;8.00;;
23406;SDS011;11876;53.438;18.942;2023-03-16T10:46:43;13.23;;;8.98;;
23406;SDS011;11876;53.438;18.942;2023-03-16T10:49:50;12.88;;;9.10;;
23406;SDS011;11876;53.438;18.942;2023-03-16T10:52:52;16.42;;;10.07;;
23406;SDS011;11876;53.438;18.942;2023-03-16T10:55:59;11.73;;;8.25;;
23406;SDS011;11876;53.438;18.942;2023-03-16T10:59:13;15.57;;;9.80;;
23406;SDS011;11876;53.438;18.942;2023-03-16T11:02:19;14.85;;;10.95;;
23406;SDS011;11876;53.438;18.942;2023-03-16T11:05:33;16.15;;;10.63;;
23406;SDS011;11876;53.438;18.942;2023-03-16T11:08:36;11.93;;;8.95;;
23406;SDS011;11876;53.438;18.942;2023-03-16T11:11:45;13.82;;;8.70;;
23406;SDS011;11876;53.438;18.942;2023-03-16T11:14:50;12.68;;;9.07;;
23406;SDS011;11876;53.438;18.942;2023-03-16T11:17:52;15.20;;;8.43;;
23406;SDS011;11876;53.438;18.942;2023-03-16T11:20:55;19.65;;;9.38;;
23406;SDS011;11876;53.438;18.942;2023-03-16T11:23:59;14.13;;;8.00;;
23406;SDS011;11876;53.438;18.942;2023-03-16T11:27:05;17.00;;;8.25;;
23406;SDS011;11876;53.438;18.942;2023-03-16T11:34:02;12.38;;;7.55;;
23406;SDS011;11876;53.438;18.942;2023-03-16T11:44:15;12.82;;;7.25;;
23406;SDS011;11876;53.438;18.942;2023-03-16T11:58:20;10.82;;;6.57;;
23406;SDS011;11876;53.438;18.942;2023-03-16T12:08:55;10.32;;;6.80;;
23406;SDS011;11876;53.438;18.942;2023-03-16T12:18:42;11.57;;;7.72;;
23406;SDS011;11876;53.438;18.942;2023-03-16T12:21:48;11.85;;;7.38;;
23406;SDS011;11876;53.438;18.942;2023-03-16T12:24:57;10.50;;;7.43;;
23406;SDS011;11876;53.438;18.942;2023-03-16T12:28:02;8.27;;;6.82;;
23406;SDS011;11876;53.438;18.942;2023-03-16T12:31:12;9.23;;;7.18;;
23406;SDS011;11876;53.438;18.942;2023-03-16T12:34:21;14.00;;;7.90;;
23406;SDS011;11876;53.438;18.942;2023-03-16T12:37:36;10.57;;;7.28;;
23406;SDS011;11876;53.438;18.942;2023-03-16T12:44:04;9.43;;;6.13;;
23406;SDS011;11876;53.438;18.942;2023-03-16T12:50:31;9.93;;;6.82;;
23406;SDS011;11876;53.438;18.942;2023-03-16T12:53:42;7.65;;;6.13;;
23406;SDS011;11876;53.438;18.942;2023-03-16T12:56:45;9.30;;;7.25;;
23406;SDS011;11876;53.438;18.942;2023-03-16T12:59:54;8.38;;;5.07;;
23406;SDS011;11876;53.438;18.942;2023-03-16T13:02:59;5.75;;;4.47;;
23406;SDS011;11876;53.438;18.942;2023-03-16T13:06:02;8.23;;;6.28;;
23406;SDS011;11876;53.438;18.942;2023-03-16T13:09:05;9.32;;;5.10;;
23406;SDS011;11876;53.438;18.942;2023-03-16T13:12:07;6.03;;;4.05;;
23406;SDS011;11876;53.438;18.942;2023-03-16T13:18:23;8.68;;;4.43;;
23406;SDS011;11876;53.438;18.942;2023-03-16T13:21:37;4.97;;;4.18;;
23406;SDS011;11876;53.438;18.942;2023-03-16T13:24:48;4.40;;;3.80;;
23406;SDS011;11876;53.438;18.942;2023-03-16T13:27:54;4.97;;;4.25;;
23406;SDS011;11876;53.438;18.942;2023-03-16T13:30:57;6.68;;;5.18;;
23406;SDS011;11876;53.438;18.942;2023-03-16T13:33:59;7.85;;;5.50;;
23406;SDS011;11876;53.438;18.942;2023-03-16T13:37:03;9.43;;;6.05;;
23406;SDS011;11876;53.438;18.942;2023-03-16T13:40:16;5.20;;;4.70;;
23406;SDS011;11876;53.438;18.942;2023-03-16T13:43:22;9.10;;;5.25;;
23406;SDS011;11876;53.438;18.942;2023-03-16T13:46:29;6.90;;;5.35;;
23406;SDS011;11876;53.438;18.942;2023-03-16T13:49:32;6.70;;;4.55;;
23406;SDS011;11876;53.438;18.942;2023-03-16T13:52:34;5.75;;;3.80;;
23406;SDS011;11876;53.438;18.942;2023-03-16T13:55:37;5.20;;;3.53;;
23406;SDS011;11876;53.438;18.942;2023-03-16T13:58:42;4.80;;;3.40;;
23406;SDS011;11876;53.438;18.942;2023-03-16T14:01:46;4.43;;;3.40;;
23406;SDS011;11876;53.438;18.942;2023-03-16T14:04:49;3.20;;;2.88;;
23406;SDS011;11876;53.438;18.942;2023-03-16T14:07:52;3.95;;;3.13;;
23406;SDS011;11876;53.438;18.942;2023-03-16T14:10:55;4.03;;;2.33;;
23406;SDS011;11876;53.438;18.942;2023-03-16T14:14:11;3.78;;;3.20;;
23406;SDS011;11876;53.438;18.942;2023-03-16T14:17:18;4.85;;;3.47;;
23406;SDS011;11876;53.438;18.942;2023-03-16T14:23:27;4.25;;;3.42;;
23406;SDS011;11876;53.438;18.942;2023-03-16T14:26:40;5.38;;;3.85;;
23406;SDS011;11876;53.438;18.942;2023-03-16T14:29:51;3.90;;;3.00;;
23406;SDS011;11876;53.438;18.942;2023-03-16T14:33:02;4.72;;;3.00;;
23406;SDS011;11876;53.438;18.942;2023-03-16T14:36:17;4.85;;;3.20;;
23406;SDS011;11876;53.438;18.942;2023-03-16T14:39:20;6.93;;;3.78;;
23406;SDS011;11876;53.438;18.942;2023-03-16T14:42:26;3.17;;;2.33;;
23406;SDS011;11876;53.438;18.942;2023-03-16T14:45:32;2.75;;;2.47;;
23406;SDS011;11876;53.438;18.942;2023-03-16T14:48:36;5.22;;;2.20;;
23406;SDS011;11876;53.438;18.942;2023-03-16T14:51:39;7.00;;;3.15;;
23406;SDS011;11876;53.438;18.942;2023-03-16T14:54:42;16.77;;;5.50;;
23406;SDS011;11876;53.438;18.942;2023-03-16T14:57:45;9.60;;;6.60;;
23406;SDS011;11876;53.438;18.942;2023-03-16T15:00:48;7.43;;;4.40;;
23406;SDS011;11876;53.438;18.942;2023-03-16T15:03:54;14.20;;;5.13;;
23406;SDS011;11876;53.438;18.942;2023-03-16T15:06:57;7.05;;;3.95;;
23406;SDS011;11876;53.438;18.942;2023-03-16T15:10:02;3.88;;;2.70;;
23406;SDS011;11876;53.438;18.942;2023-03-16T15:13:12;13.40;;;3.33;;
23406;SDS011;11876;53.438;18.942;2023-03-16T15:19:28;11.70;;;4.03;;
23406;SDS011;11876;53.438;18.942;2023-03-16T15:22:34;10.15;;;3.80;;
23406;SDS011;11876;53.438;18.942;2023-03-16T15:25:40;6.65;;;3.30;;
23406;SDS011;11876;53.438;18.942;2023-03-16T15:28:46;9.77;;;3.83;;
23406;SDS011;11876;53.438;18.942;2023-03-16T15:31:48;3.00;;;2.70;;
23406;SDS011;11876;53.438;18.942;2023-03-16T15:34:54;5.18;;;3.13;;
23406;SDS011;11876;53.438;18.942;2023-03-16T15:37:58;4.68;;;3.60;;
23406;SDS011;11876;53.438;18.942;2023-03-16T15:41:02;4.20;;;3.63;;
23406;SDS011;11876;53.438;18.942;2023-03-16T15:44:08;5.93;;;3.53;;
23406;SDS011;11876;53.438;18.942;2023-03-16T15:47:13;4.53;;;3.22;;
23406;SDS011;11876;53.438;18.942;2023-03-16T15:50:18;6.20;;;4.30;;
23406;SDS011;11876;53.438;18.942;2023-03-16T15:53:26;7.30;;;4.35;;
23406;SDS011;11876;53.438;18.942;2023-03-16T15:56:35;9.45;;;5.18;;
23406;SDS011;11876;53.438;18.942;2023-03-16T15:59:54;7.82;;;5.38;;
23406;SDS011;11876;53.438;18.942;2023-03-16T16:02:57;4.25;;;3.85;;
23406;SDS011;11876;53.438;18.942;2023-03-16T16:06:00;6.65;;;4.30;;
23406;SDS011;11876;53.438;18.942;2023-03-16T16:09:03;5.97;;;4.28;;
23406;SDS011;11876;53.438;18.942;2023-03-16T16:12:11;6.90;;;4.38;;
23406;SDS011;11876;53.438;18.942;2023-03-16T16:15:25;6.13;;;4.72;;
23406;SDS011;11876;53.438;18.942;2023-03-16T16:18:31;6.82;;;4.20;;
23406;SDS011;11876;53.438;18.942;2023-03-16T16:21:37;6.60;;;4.57;;
23406;SDS011;11876;53.438;18.942;2023-03-16T16:24:39;7.60;;;4.68;;
23406;SDS011;11876;53.438;18.942;2023-03-16T16:27:41;8.82;;;4.40;;
23406;SDS011;11876;53.438;18.942;2023-03-16T16:30:44;7.22;;;4.95;;
23406;SDS011;11876;53.438;18.942;2023-03-16T16:33:46;5.80;;;4.65;;
23406;SDS011;11876;53.438;18.942;2023-03-16T16:36:49;22.83;;;12.95;;
23406;SDS011;11876;53.438;18.942;2023-03-16T16:39:52;25.08;;;12.45;;
23406;SDS011;11876;53.438;18.942;2023-03-16T16:42:54;32.28;;;15.10;;
23406;SDS011;11876;53.438;18.942;2023-03-16T16:46:10;44.88;;;20.75;;
23406;SDS011;11876;53.438;18.942;2023-03-16T16:49:23;71.70;;;31.50;;
23406;SDS011;11876;53.438;18.942;2023-03-16T16:52:31;36.17;;;20.63;;
23406;SDS011;11876;53.438;18.942;2023-03-16T16:55:33;29.45;;;17.92;;
23406;SDS011;11876;53.438;18.942;2023-03-16T16:58:36;23.50;;;15.43;;
23406;SDS011;11876;53.438;18.942;2023-03-16T17:01:39;23.27;;;14.48;;
23406;SDS011;11876;53.438;18.942;2023-03-16T17:04:42;12.80;;;9.63;;
23406;SDS011;11876;53.438;18.942;2023-03-16T17:07:44;13.75;;;9.05;;
23406;SDS011;11876;53.438;18.942;2023-03-16T17:10:47;12.15;;;9.02;;
23406;SDS011;11876;53.438;18.942;2023-03-16T17:13:50;13.98;;;9.32;;
23406;SDS011;11876;53.438;18.942;2023-03-16T17:16:53;16.95;;;11.32;;
23406;SDS011;11876;53.438;18.942;2023-03-16T17:19:55;14.27;;;10.30;;
23406;SDS011;11876;53.438;18.942;2023-03-16T17:22:58;13.25;;;9.43;;
23406;SDS011;11876;53.438;18.942;2023-03-16T17:26:02;17.90;;;11.10;;
23406;SDS011;11876;53.438;18.942;2023-03-16T17:29:23;19.45;;;11.90;;
23406;SDS011;11876;53.438;18.942;2023-03-16T17:32:35;18.67;;;12.57;;
23406;SDS011;11876;53.438;18.942;2023-03-16T17:35:37;21.85;;;14.43;;
23406;SDS011;11876;53.438;18.942;2023-03-16T17:38:42;19.13;;;13.07;;
23406;SDS011;11876;53.438;18.942;2023-03-16T17:41:46;19.42;;;12.48;;
23406;SDS011;11876;53.438;18.942;2023-03-16T17:44:51;17.75;;;12.25;;
23406;SDS011;11876;53.438;18.942;2023-03-16T17:47:54;18.10;;;12.40;;
23406;SDS011;11876;53.438;18.942;2023-03-16T17:50:56;20.40;;;12.93;;
23406;SDS011;11876;53.438;18.942;2023-03-16T17:53:59;111.75;;;45.40;;
23406;SDS011;11876;53.438;18.942;2023-03-16T17:57:02;64.82;;;31.27;;
23406;SDS011;11876;53.438;18.942;2023-03-16T18:00:07;35.70;;;19.60;;
23406;SDS011;11876;53.438;18.942;2023-03-16T18:03:24;30.92;;;17.83;;
23406;SDS011;11876;53.438;18.942;2023-03-16T18:06:30;27.95;;;16.45;;
23406;SDS011;11876;53.438;18.942;2023-03-16T18:09:33;28.92;;;17.30;;
23406;SDS011;11876;53.438;18.942;2023-03-16T18:12:36;31.85;;;18.08;;
23406;SDS011;11876;53.438;18.942;2023-03-16T18:15:38;35.03;;;19.60;;
23406;SDS011;11876;53.438;18.942;2023-03-16T18:18:41;38.88;;;20.90;;
23406;SDS011;11876;53.438;18.942;2023-03-16T18:21:43;39.45;;;21.75;;
23406;SDS011;11876;53.438;18.942;2023-03-16T18:24:46;33.72;;;19.52;;
23406;SDS011;11876;53.438;18.942;2023-03-16T18:27:49;23.35;;;12.88;;
23406;SDS011;11876;53.438;18.942;2023-03-16T18:30:52;26.95;;;17.50;;
23406;SDS011;11876;53.438;18.942;2023-03-16T18:33:55;31.27;;;16.55;;
23406;SDS011;11876;53.438;18.942;2023-03-16T18:37:00;28.85;;;18.25;;
23406;SDS011;11876;53.438;18.942;2023-03-16T18:40:09;30.92;;;17.92;;
23406;SDS011;11876;53.438;18.942;2023-03-16T18:43:14;26.98;;;17.15;;
23406;SDS011;11876;53.438;18.942;2023-03-16T18:49:25;42.33;;;23.58;;
23406;SDS011;11876;53.438;18.942;2023-03-16T18:52:31;37.85;;;22.63;;
23406;SDS011;11876;53.438;18.942;2023-03-16T18:58:46;40.88;;;21.20;;
23406;SDS011;11876;53.438;18.942;2023-03-16T19:01:49;43.63;;;24.48;;
23406;SDS011;11876;53.438;18.942;2023-03-16T19:04:56;36.67;;;21.52;;
23406;SDS011;11876;53.438;18.942;2023-03-16T19:08:00;35.47;;;19.95;;
23406;SDS011;11876;53.438;18.942;2023-03-16T19:11:04;39.08;;;24.88;;
23406;SDS011;11876;53.438;18.942;2023-03-16T19:14:16;46.70;;;27.10;;
23406;SDS011;11876;53.438;18.942;2023-03-16T19:17:22;43.83;;;24.27;;
23406;SDS011;11876;53.438;18.942;2023-03-16T19:20:26;50.25;;;28.10;;